Time;durP1;ratioP1;P1;durP2;ratioP2;P2;SDS_P1;SDS_P2;PMS_P1;PMS_P2;Temp;Humidity;BMP_temperature;BMP_pressure;BME280_temperature;BME280_humidity;BME280_pressure;Samples;Min_cycle;Max_cycle;Signal;HPM_P1;HPM_P2
2022/02/22 00:01:24;;;;;;;19.30;13.50;;;;;;;9.24;60.59;94204.94;5024462;28;20101;-76
2022/02/22 00:03:49;;;;;;;20.30;12.88;;;;;;;9.29;60.41;94201.66;5024778;28;20377;-76
2022/02/22 00:06:14;;;;;;;17.15;12.60;;;;;;;9.30;60.35;94203.34;5026218;28;20029;-76
2022/02/22 00:08:40;;;;;;;19.85;12.52;;;;;;;9.27;61.02;94204.53;5026200;28;20041;-74
2022/02/22 00:11:05;;;;;;;18.58;13.88;;;;;;;9.28;60.19;94205.38;5026057;28;20029;-75
2022/02/22 00:13:31;;;;;;;21.50;13.40;;;;;;;9.35;60.56;94200.06;5026483;28;20040;-76
2022/02/22 00:16:00;;;;;;;20.52;13.05;;;;;;;9.44;60.70;94192.66;5024734;28;20033;-75
2022/02/22 00:18:25;;;;;;;19.80;12.57;;;;;;;9.49;60.85;94198.25;5025905;28;20026;-76
2022/02/22 00:20:51;;;;;;;15.73;11.90;;;;;;;9.57;60.12;94206.09;5008342;28;20029;-76
2022/02/22 00:23:16;;;;;;;18.38;13.18;;;;;;;9.59;60.26;94205.91;4991787;28;20021;-76
2022/02/22 00:25:42;;;;;;;17.63;12.57;;;;;;;9.61;60.14;94210.03;5007959;28;20045;-75
2022/02/22 00:28:07;;;;;;;21.65;13.55;;;;;;;9.54;60.47;94209.19;5024707;28;20052;-77
2022/02/22 00:30:33;;;;;;;19.90;13.18;;;;;;;9.46;60.62;94207.50;5024355;28;20037;-74
2022/02/22 00:32:59;;;;;;;19.80;13.18;;;;;;;9.41;60.31;94199.25;5024254;28;20483;-75
2022/02/22 00:35:24;;;;;;;18.73;12.70;;;;;;;9.45;59.68;94197.81;5008384;28;20494;-76
2022/02/22 00:37:50;;;;;;;17.90;12.70;;;;;;;9.38;59.97;94186.28;5025441;28;20538;-76
2022/02/22 00:40:15;;;;;;;23.80;12.95;;;;;;;9.36;60.56;94191.84;5025628;28;20029;-76
2022/02/22 00:42:41;;;;;;;20.48;11.85;;;;;;;9.30;60.84;94198.00;5025526;28;20025;-75
2022/02/22 00:45:07;;;;;;;21.65;12.32;;;;;;;9.31;61.35;94193.44;5025404;28;20033;-76
2022/02/22 00:47:33;;;;;;;19.83;12.70;;;;;;;9.39;60.75;94186.06;5007692;28;20025;-75
2022/02/22 00:49:58;;;;;;;17.60;12.27;;;;;;;9.32;60.84;94189.75;5007834;28;20029;-75
2022/02/22 00:52:23;;;;;;;17.55;11.50;;;;;;;9.35;60.63;94190.16;5025717;28;20018;-76
2022/02/22 00:54:49;;;;;;;19.25;12.02;;;;;;;9.39;60.28;94195.94;5025549;28;20455;-75
2022/02/22 00:57:14;;;;;;;19.60;12.20;;;;;;;9.27;60.51;94196.53;5025275;28;20086;-76
2022/02/22 00:59:40;;;;;;;19.75;11.70;;;;;;;9.24;60.63;94182.72;5025170;28;20340;-74
2022/02/22 01:02:05;;;;;;;17.70;11.27;;;;;;;9.21;60.39;94188.47;5025371;28;20029;-75
2022/02/22 01:04:31;;;;;;;17.77;11.70;;;;;;;9.26;60.47;94180.66;5025435;28;20033;-76
2022/02/22 01:06:56;;;;;;;18.17;11.00;;;;;;;9.21;60.57;94175.91;5024058;28;20041;-76
2022/02/22 01:09:22;;;;;;;15.10;10.27;;;;;;;9.16;60.90;94175.69;5025114;28;20496;-75
2022/02/22 01:11:47;;;;;;;20.08;10.63;;;;;;;9.20;61.03;94182.31;5023721;28;20455;-76
2022/02/22 01:14:13;;;;;;;18.17;11.02;;;;;;;9.14;60.98;94188.44;5022869;28;20022;-76
2022/02/22 01:16:38;;;;;;;17.98;10.68;;;;;;;9.11;61.02;94180.78;5024961;28;20108;-75
2022/02/22 01:19:04;;;;;;;17.88;10.55;;;;;;;9.11;60.95;94181.63;5024878;28;20057;-76
2022/02/22 01:21:31;;;;;;;16.95;10.40;;;;;;;9.12;61.19;94183.31;5023425;28;20381;-76
2022/02/22 01:23:57;;;;;;;16.77;10.52;;;;;;;9.08;61.42;94182.03;5023865;28;20025;-75
2022/02/22 01:26:24;;;;;;;16.92;10.30;;;;;;;9.07;61.35;94176.88;5024706;28;20434;-76
2022/02/22 01:28:49;;;;;;;14.88;10.15;;;;;;;9.00;61.58;94171.50;5024993;28;20029;-75
2022/02/22 01:31:15;;;;;;;18.30;10.48;;;;;;;8.99;61.84;94173.38;5024973;28;20083;-75
2022/02/22 01:33:40;;;;;;;17.23;10.68;;;;;;;9.01;62.08;94173.97;5024750;28;20029;-75
2022/02/22 01:36:06;;;;;;;18.80;10.00;;;;;;;9.01;62.13;94179.31;5024926;28;20029;-76
2022/02/22 01:38:31;;;;;;;15.05;10.85;;;;;;;9.13;61.99;94186.78;5024374;28;20037;-76
2022/02/22 01:40:57;;;;;;;20.60;11.30;;;;;;;9.10;61.82;94181.84;5024732;28;20037;-75
2022/02/22 01:43:23;;;;;;;17.52;10.77;;;;;;;9.08;61.65;94176.69;5024559;28;20032;-76
2022/02/22 01:45:49;;;;;;;13.32;9.90;;;;;;;9.07;61.63;94185.75;5023640;28;20021;-74
2022/02/22 01:48:14;;;;;;;14.57;9.82;;;;;;;9.02;62.53;94181.00;5023577;28;20026;-77
2022/02/22 01:50:40;;;;;;;12.90;9.38;;;;;;;9.03;62.15;94197.84;5023051;28;20032;-76
2022/02/22 01:53:05;;;;;;;15.10;8.77;;;;;;;9.08;62.05;94199.91;5024886;28;20499;-75
2022/02/22 01:55:32;;;;;;;12.18;8.43;;;;;;;9.11;61.88;94194.16;5023192;28;20455;-74
2022/02/22 01:57:58;;;;;;;15.15;8.68;;;;;;;9.04;62.13;94191.50;5006947;28;20080;-76
2022/02/22 02:00:26;;;;;;;13.60;8.07;;;;;;;8.92;63.39;94191.22;5024681;28;20034;-76
2022/02/22 02:02:52;;;;;;;15.43;8.50;;;;;;;8.91;63.82;94200.25;5024735;28;20030;-76
2022/02/22 02:05:18;;;;;;;11.85;7.53;;;;;;;8.98;64.63;94201.09;5023242;28;20030;-76
2022/02/22 02:07:43;;;;;;;11.40;7.28;;;;;;;9.02;64.70;94201.56;5023110;28;20021;-75
2022/02/22 02:10:09;;;;;;;12.02;7.25;;;;;;;9.01;65.64;94200.72;5023230;28;20052;-74
2022/02/22 02:12:38;;;;;;;10.35;6.60;;;;;;;9.08;65.36;94191.91;5006488;28;20112;-75
2022/02/22 02:15:04;;;;;;;10.07;6.63;;;;;;;9.12;65.83;94190.50;5024406;28;20061;-75
2022/02/22 02:17:31;;;;;;;11.13;6.57;;;;;;;9.15;65.93;94190.09;5006362;28;20099;-74
2022/02/22 02:19:57;;;;;;;12.07;7.30;;;;;;;9.10;66.20;94193.38;5023044;28;20026;-76
2022/02/22 02:22:22;;;;;;;9.25;6.60;;;;;;;9.12;66.55;94195.84;5024747;28;20053;-77
2022/02/22 02:24:48;;;;;;;8.77;6.40;;;;;;;9.06;66.80;94176.03;5025281;28;20022;-75
2022/02/22 02:27:13;;;;;;;13.90;7.25;;;;;;;9.03;67.92;94177.28;5028349;28;20050;-75
2022/02/22 02:29:42;;;;;;;11.25;7.00;;;;;;;9.05;67.47;94170.91;5010073;28;20362;-75
2022/02/22 02:32:08;;;;;;;12.50;7.45;;;;;;;9.07;67.46;94171.53;5028230;28;20117;-75
2022/02/22 02:34:33;;;;;;;15.65;9.02;;;;;;;9.12;67.48;94174.44;5026426;28;20029;-75
2022/02/22 02:36:59;;;;;;;13.80;8.60;;;;;;;9.06;67.60;94185.94;5026544;28;20028;-76
2022/02/22 02:39:24;;;;;;;13.25;8.23;;;;;;;9.03;68.15;94182.63;5028141;28;20032;-76
2022/02/22 02:41:50;;;;;;;15.57;8.70;;;;;;;9.01;68.81;94173.16;5027737;28;20017;-74
2022/02/22 02:44:16;;;;;;;13.85;9.50;;;;;;;9.02;68.38;94169.47;5026359;28;20068;-75
2022/02/22 02:46:42;;;;;;;14.07;10.30;;;;;;;9.09;67.97;94178.31;5026442;28;20025;-75
2022/02/22 02:49:08;;;;;;;12.80;9.80;;;;;;;8.92;67.71;94175.16;5026319;28;20029;-76
2022/02/22 02:51:34;;;;;;;12.40;9.07;;;;;;;8.96;67.88;94191.66;5009724;28;20036;-76
2022/02/22 02:53:59;;;;;;;10.77;8.10;;;;;;;9.00;67.99;94190.22;5026072;28;20025;-77
2022/02/22 02:56:24;;;;;;;9.90;7.57;;;;;;;9.06;66.90;94192.09;5027452;28;20033;-76
2022/02/22 02:58:54;;;;;;;17.48;9.20;;;;;;;9.09;67.82;94188.22;5026102;28;20087;-76
2022/02/22 03:01:19;;;;;;;19.00;10.27;;;;;;;9.03;67.81;94187.97;5026200;28;20104;-76
2022/02/22 03:03:45;;;;;;;18.40;10.95;;;;;;;9.07;67.77;94192.94;5026165;28;20033;-77
2022/02/22 03:06:10;;;;;;;21.48;12.00;;;;;;;9.07;68.15;94183.06;5026152;28;20041;-76
2022/02/22 03:08:36;;;;;;;17.77;11.60;;;;;;;9.02;68.49;94183.66;5026093;28;20074;-75
2022/02/22 03:11:01;;;;;;;15.55;10.43;;;;;;;9.05;67.94;94192.28;5027113;28;20029;-75
2022/02/22 03:13:27;;;;;;;14.48;9.27;;;;;;;9.06;67.65;94199.31;5025975;28;20032;-76
2022/02/22 03:15:52;;;;;;;15.32;9.65;;;;;;;8.99;68.18;94204.63;5026910;28;20032;-76
2022/02/22 03:18:17;;;;;;;12.02;8.25;;;;;;;9.00;67.87;94209.78;5027167;28;20037;-75
2022/02/22 03:20:43;;;;;;;12.52;7.95;;;;;;;8.94;68.46;94207.06;5027186;28;20025;-77
2022/02/22 03:23:08;;;;;;;12.55;8.02;;;;;;;8.89;68.92;94202.31;5025556;28;20041;-75
2022/02/22 03:25:34;;;;;;;13.20;8.05;;;;;;;8.93;69.03;94198.19;5027045;28;20046;-74
2022/02/22 03:28:01;;;;;;;11.07;8.10;;;;;;;8.92;69.34;94201.91;5025448;28;20075;-76
2022/02/22 03:30:32;;;;;;;11.35;7.60;;;;;;;8.92;68.63;94207.25;5026799;28;20192;-74
2022/02/22 03:32:57;;;;;;;13.15;7.95;;;;;;;8.96;68.65;94203.19;5025382;28;20025;-75
2022/02/22 03:35:23;;;;;;;12.15;8.00;;;;;;;8.97;69.24;94204.81;5026639;28;20541;-75
2022/02/22 03:37:48;;;;;;;10.95;7.20;;;;;;;8.85;70.26;94201.06;5025864;28;20026;-74
2022/02/22 03:40:13;;;;;;;11.57;7.78;;;;;;;8.81;70.72;94205.13;5026676;28;20021;-75
2022/02/22 03:42:42;;;;;;;14.10;7.38;;;;;;;8.84;70.65;94210.06;5025671;28;20072;-74
2022/02/22 03:45:12;;;;;;;9.38;7.25;;;;;;;8.81;70.72;94202.44;5025179;28;20022;-76
2022/02/22 03:47:38;;;;;;;9.80;7.13;;;;;;;8.82;70.70;94196.91;5025355;28;20528;-77
2022/02/22 03:50:08;;;;;;;13.50;9.02;;;;;;;8.87;70.39;94204.34;5008354;28;20195;-76
2022/02/22 03:52:34;;;;;;;11.95;8.13;;;;;;;8.89;70.99;94213.84;5026526;28;20029;-76
2022/02/22 03:54:59;;;;;;;10.32;6.60;;;;;;;8.93;70.31;94210.75;5026369;28;20053;-75
2022/02/22 03:57:24;;;;;;;8.10;6.57;;;;;;;8.81;71.39;94205.97;5024899;28;20581;-75
2022/02/22 03:59:50;;;;;;;10.57;6.00;;;;;;;8.86;71.05;94213.38;5025219;28;20071;-75
2022/02/22 04:02:15;;;;;;;11.30;6.47;;;;;;;8.87;70.59;94215.03;5008497;28;20455;-76
2022/02/22 04:04:41;;;;;;;9.85;6.80;;;;;;;8.83;71.32;94211.94;5024996;28;20025;-77
2022/02/22 04:07:06;;;;;;;9.32;5.90;;;;;;;8.88;70.96;94211.34;5026089;28;20494;-77
2022/02/22 04:09:32;;;;;;;6.88;5.57;;;;;;;8.92;70.26;94212.59;5026089;28;20033;-77
2022/02/22 04:11:57;;;;;;;10.20;6.05;;;;;;;8.92;70.70;94217.94;5024925;28;20283;-76
2022/02/22 04:14:22;;;;;;;10.98;6.32;;;;;;;8.87;71.18;94215.88;5024558;28;20029;-77
2022/02/22 04:16:48;;;;;;;10.52;6.55;;;;;;;8.86;71.13;94218.75;5026092;28;20025;-76
2022/02/22 04:19:13;;;;;;;7.63;5.43;;;;;;;8.87;70.97;94215.03;5024357;28;20030;-75
2022/02/22 04:21:39;;;;;;;6.53;5.50;;;;;;;8.86;70.94;94222.25;5026535;28;20021;-75
2022/02/22 04:24:05;;;;;;;11.68;6.65;;;;;;;8.78;71.46;94225.91;5024467;28;20028;-74
2022/02/22 04:26:30;;;;;;;10.30;7.07;;;;;;;8.74;72.01;94221.94;5024616;28;20041;-75
2022/02/22 04:29:00;;;;;;;10.43;7.55;;;;;;;8.76;72.09;94230.59;5025969;28;20036;-76
2022/02/22 04:31:25;;;;;;;12.48;6.90;;;;;;;8.76;72.25;94233.28;5025412;28;20496;-77
2022/02/22 04:33:51;;;;;;;9.60;6.85;;;;;;;8.72;72.79;94237.34;5025909;28;20029;-76
2022/02/22 04:36:16;;;;;;;10.27;6.50;;;;;;;8.61;73.30;94243.25;5025407;28;20404;-75
2022/02/22 04:38:42;;;;;;;8.88;6.18;;;;;;;8.66;72.92;94246.16;5025691;28;20033;-76
2022/02/22 04:41:07;;;;;;;7.63;5.22;;;;;;;8.63;72.31;94255.41;5025547;28;20389;-77
2022/02/22 04:43:32;;;;;;;6.63;5.30;;;;;;;8.44;74.16;94269.38;5025842;28;20427;-74
2022/02/22 04:45:58;;;;;;;11.65;6.00;;;;;;;8.28;74.37;94266.81;5025627;28;20052;-75
2022/02/22 04:48:23;;;;;;;8.77;5.32;;;;;;;8.29;74.65;94260.44;5023742;28;20415;-75
2022/02/22 04:50:49;;;;;;;9.40;5.60;;;;;;;8.28;75.26;94263.31;5024219;28;20033;-77
2022/02/22 04:53:14;;;;;;;7.60;5.32;;;;;;;8.29;75.53;94271.13;5025075;28;20021;-76
2022/02/22 04:55:40;;;;;;;8.63;4.85;;;;;;;8.25;75.06;94275.16;5024278;28;20032;-76
2022/02/22 04:58:05;;;;;;;6.75;4.70;;;;;;;8.29;74.88;94273.78;5024171;28;20022;-76
2022/02/22 05:00:31;;;;;;;6.43;4.85;;;;;;;8.34;74.77;94280.41;5025194;28;20715;-76
2022/02/22 05:02:56;;;;;;;8.98;5.07;;;;;;;8.32;75.12;94282.44;5025726;28;20026;-77
2022/02/22 05:05:21;;;;;;;9.52;4.85;;;;;;;8.39;74.68;94280.66;5023509;28;20489;-76
2022/02/22 05:07:47;;;;;;;9.30;4.97;;;;;;;8.39;74.52;94280.66;5025169;28;20511;-75
2022/02/22 05:10:12;;;;;;;8.40;4.90;;;;;;;8.44;74.07;94286.25;5025200;28;20048;-77
2022/02/22 05:12:38;;;;;;;8.35;5.15;;;;;;;8.46;73.68;94294.06;5025063;28;20507;-75
2022/02/22 05:15:04;;;;;;;5.75;4.15;;;;;;;8.42;73.23;94298.97;5023916;28;20026;-75
2022/02/22 05:17:29;;;;;;;7.95;4.93;;;;;;;8.43;73.55;94300.63;5023789;28;20099;-77
2022/02/22 05:19:55;;;;;;;9.10;4.25;;;;;;;8.45;73.03;94301.25;5023974;28;20017;-76
2022/02/22 05:22:20;;;;;;;6.13;4.75;;;;;;;8.43;73.60;94299.81;5023630;28;20030;-75
2022/02/22 05:24:46;;;;;;;8.93;6.40;;;;;;;8.41;73.54;94297.31;5025203;28;20029;-76
2022/02/22 05:27:11;;;;;;;8.27;4.85;;;;;;;8.43;73.59;94297.94;5024729;28;20095;-76
2022/02/22 05:29:37;;;;;;;8.38;5.15;;;;;;;8.36;74.12;94299.75;5007089;28;20041;-77
2022/02/22 05:32:02;;;;;;;8.18;4.43;;;;;;;8.34;74.29;94291.91;5024887;28;20037;-76
2022/02/22 05:34:28;;;;;;;6.75;4.45;;;;;;;8.29;74.29;94279.13;5023557;28;20025;-75
2022/02/22 05:36:53;;;;;;;10.18;4.80;;;;;;;8.36;74.03;94283.72;5024989;28;20077;-77
2022/02/22 05:39:19;;;;;;;7.68;3.80;;;;;;;8.38;73.51;94295.03;5023986;28;20984;-78
2022/02/22 05:41:44;;;;;;;7.55;3.90;;;;;;;8.34;73.31;94291.91;5025298;28;20057;-76
2022/02/22 05:44:09;;;;;;;5.65;3.72;;;;;;;8.37;72.86;94294.19;5025036;28;20079;-76
2022/02/22 05:46:35;;;;;;;6.28;4.28;;;;;;;8.36;72.93;94299.75;5023903;28;20021;-76
2022/02/22 05:49:00;;;;;;;7.15;4.07;;;;;;;8.33;72.97;94294.78;5023726;28;20073;-77
2022/02/22 05:51:26;;;;;;;5.88;4.50;;;;;;;8.28;73.97;94290.84;5024806;28;20021;-75
2022/02/22 05:53:51;;;;;;;6.90;5.28;;;;;;;8.28;73.91;94298.03;5024871;28;20013;-76
2022/02/22 05:56:18;;;;;;;7.85;4.55;;;;;;;8.26;74.04;94297.38;5023732;28;20035;-75
2022/02/22 05:58:44;;;;;;;9.75;4.97;;;;;;;8.27;73.72;94307.88;5023222;28;20381;-74
2022/02/22 06:01:09;;;;;;;12.32;5.28;;;;;;;8.30;73.85;94306.69;5027476;28;20515;-76
2022/02/22 06:03:34;;;;;;;7.68;5.03;;;;;;;8.31;73.71;94302.97;5028610;28;20029;-76
2022/02/22 06:06:00;;;;;;;6.90;5.38;;;;;;;8.29;73.54;94299.66;5027364;28;20036;-76
2022/02/22 06:08:27;;;;;;;12.25;5.53;;;;;;;8.27;73.90;94307.88;5028640;28;20036;-76
2022/02/22 06:10:52;;;;;;;11.10;5.28;;;;;;;8.31;73.60;94310.16;5028601;28;20100;-74
2022/02/22 06:13:18;;;;;;;8.60;5.38;;;;;;;8.31;73.70;94318.19;5027098;28;20729;-75
2022/02/22 06:15:44;;;;;;;8.13;5.70;;;;;;;8.31;73.71;94312.84;5028175;28;20025;-76
2022/02/22 06:18:09;;;;;;;9.55;6.32;;;;;;;8.34;73.93;94310.63;5028360;28;20116;-75
2022/02/22 06:20:35;;;;;;;7.55;5.63;;;;;;;8.35;73.89;94314.13;5028157;28;20029;-75
2022/02/22 06:23:01;;;;;;;12.20;6.80;;;;;;;8.32;73.89;94315.31;5027091;28;20030;-75
2022/02/22 06:25:27;;;;;;;11.57;7.40;;;;;;;8.28;74.22;94319.41;5026670;28;20052;-75
2022/02/22 06:27:53;;;;;;;11.40;6.82;;;;;;;8.29;74.50;94311.19;5027946;28;20041;-76
2022/02/22 06:30:19;;;;;;;10.07;7.00;;;;;;;8.19;74.70;94316.00;5026604;28;20107;-76
2022/02/22 06:32:45;;;;;;;11.52;7.90;;;;;;;8.10;75.49;94317.16;5010065;28;20033;-79
2022/02/22 06:35:11;;;;;;;10.18;7.00;;;;;;;7.92;75.66;94307.72;5010425;28;20071;-75
2022/02/22 06:37:37;;;;;;;9.77;6.80;;;;;;;7.97;76.19;94310.66;5010125;28;20034;-76
2022/02/22 06:40:05;;;;;;;15.85;8.63;;;;;;;7.83;76.44;94307.00;5028088;28;20025;-76
2022/02/22 06:42:31;;;;;;;16.95;8.68;;;;;;;7.92;76.31;94310.38;5026445;28;20111;-78
2022/02/22 06:44:56;;;;;;;13.68;8.82;;;;;;;7.90;76.53;94309.75;5027667;28;20025;-75
2022/02/22 06:47:22;;;;;;;14.55;9.18;;;;;;;7.96;76.54;94319.69;5027901;28;20033;-76
2022/02/22 06:49:47;;;;;;;16.58;11.40;;;;;;;7.84;76.25;94313.16;5027545;28;20095;-76
2022/02/22 06:52:13;;;;;;;22.13;12.57;;;;;;;7.75;77.31;94321.31;5026585;28;20037;-74
2022/02/22 06:54:38;;;;;;;18.83;12.18;;;;;;;7.82;76.92;94325.88;5009734;28;20032;-74
2022/02/22 06:57:04;;;;;;;20.10;12.20;;;;;;;7.93;76.78;94314.72;5027266;28;20025;-77
2022/02/22 06:59:29;;;;;;;19.13;13.05;;;;;;;8.04;76.10;94316.88;5026494;28;20029;-76
2022/02/22 07:01:55;;;;;;;20.77;14.07;;;;;;;8.12;75.78;94310.63;5026138;28;20025;-76
2022/02/22 07:04:20;;;;;;;20.60;14.02;;;;;;;8.20;75.62;94316.84;5026480;28;20103;-76
2022/02/22 07:06:46;;;;;;;21.05;13.90;;;;;;;8.26;75.29;94319.59;5027235;28;20076;-76
2022/02/22 07:09:11;;;;;;;22.00;14.43;;;;;;;8.37;74.60;94317.41;5025743;28;20060;-75
2022/02/22 07:11:37;;;;;;;23.40;15.93;;;;;;;8.43;74.51;94327.34;5025973;28;20593;-75
2022/02/22 07:14:02;;;;;;;22.85;14.88;;;;;;;8.50;74.30;94316.72;5009624;28;20026;-75
2022/02/22 07:16:28;;;;;;;21.48;14.82;;;;;;;8.54;74.53;94315.31;5027275;28;20025;-75
2022/02/22 07:18:53;;;;;;;28.98;15.27;;;;;;;8.61;74.43;94312.75;5027093;28;20690;-77
2022/02/22 07:21:18;;;;;;;22.10;15.25;;;;;;;8.69;73.98;94301.91;5027347;28;20488;-76
2022/02/22 07:23:44;;;;;;;19.17;14.32;;;;;;;8.71;74.61;94310.56;5027190;28;20029;-78
2022/02/22 07:26:09;;;;;;;22.00;15.77;;;;;;;8.75;74.34;94313.69;5026580;28;20420;-76
2022/02/22 07:28:35;;;;;;;19.70;13.85;;;;;;;8.78;73.06;94315.97;5009071;28;20510;-76
2022/02/22 07:31:00;;;;;;;23.23;13.80;;;;;;;8.86;72.75;94315.81;5026823;28;20041;-79
2022/02/22 07:33:25;;;;;;;19.20;13.63;;;;;;;8.90;72.10;94311.72;5027242;28;20036;-80
2022/02/22 07:35:53;;;;;;;18.52;13.48;;;;;;;8.86;72.59;94315.81;5026943;28;20060;-76
2022/02/22 07:38:18;;;;;;;19.10;13.30;;;;;;;8.87;72.89;94316.63;5009467;28;20033;-77
2022/02/22 07:40:43;;;;;;;16.90;11.88;;;;;;;8.94;72.43;94328.22;5009367;28;20034;-76
2022/02/22 07:43:09;;;;;;;19.90;13.40;;;;;;;8.95;72.27;94323.69;5026543;28;20112;-77
2022/02/22 07:45:34;;;;;;;21.27;13.00;;;;;;;8.97;72.16;94327.00;5026886;28;20021;-78
2022/02/22 07:48:02;;;;;;;21.13;12.88;;;;;;;8.96;71.92;94328.88;5026541;28;20477;-77
2022/02/22 07:50:27;;;;;;;22.92;13.23;;;;;;;9.00;72.14;94334.63;5026499;28;20407;-75
2022/02/22 07:52:53;;;;;;;20.83;11.20;;;;;;;9.05;71.52;94328.69;5026686;28;20029;-77
2022/02/22 07:55:18;;;;;;;16.85;10.60;;;;;;;9.07;71.71;94332.84;5025149;28;20034;-78
2022/02/22 07:57:44;;;;;;;16.52;9.07;;;;;;;9.09;70.65;94329.97;5025100;28;20399;-76
2022/02/22 08:00:10;;;;;;;12.15;7.50;;;;;;;9.14;70.58;94333.72;5026555;28;20130;-77
2022/02/22 08:02:36;;;;;;;8.95;6.40;;;;;;;9.19;69.72;94333.13;5025166;28;20105;-76
2022/02/22 08:05:01;;;;;;;10.32;6.40;;;;;;;9.24;69.87;94327.19;5025065;28;20404;-76
2022/02/22 08:07:26;;;;;;;8.40;5.90;;;;;;;9.26;69.10;94335.84;5026392;28;20025;-77
2022/02/22 08:09:52;;;;;;;7.70;5.80;;;;;;;9.26;69.44;94331.34;5008448;28;20029;-77
2022/02/22 08:12:17;;;;;;;10.32;6.10;;;;;;;9.30;69.80;94329.09;5025847;28;20470;-74
2022/02/22 08:14:43;;;;;;;9.80;6.65;;;;;;;9.38;70.32;94334.25;5026148;28;20476;-75
2022/02/22 08:17:08;;;;;;;8.02;5.68;;;;;;;9.44;67.87;94335.34;5008237;28;20033;-77
2022/02/22 08:19:34;;;;;;;7.50;5.10;;;;;;;9.45;67.85;94334.31;5008474;28;20105;-75
2022/02/22 08:21:59;;;;;;;5.75;4.53;;;;;;;9.49;67.98;94340.09;5025864;28;20399;-76
2022/02/22 08:24:24;;;;;;;6.70;4.22;;;;;;;9.54;66.79;94342.19;5025767;28;20033;-76
2022/02/22 08:26:54;;;;;;;5.93;3.83;;;;;;;9.58;66.75;94343.44;5024406;28;20049;-76
2022/02/22 08:29:21;;;;;;;7.05;4.15;;;;;;;9.62;66.69;94347.38;5025528;28;20581;-76
2022/02/22 08:31:46;;;;;;;6.05;4.30;;;;;;;9.61;66.40;94348.38;5024666;28;20048;-77
2022/02/22 08:34:12;;;;;;;7.07;4.70;;;;;;;9.61;67.16;94354.59;5024421;28;20025;-77
2022/02/22 08:36:37;;;;;;;7.35;4.03;;;;;;;9.65;67.54;94363.06;5024586;28;20029;-76
2022/02/22 08:39:02;;;;;;;6.35;3.70;;;;;;;9.69;66.83;94356.25;5025843;28;20033;-76
2022/02/22 08:41:28;;;;;;;5.63;3.72;;;;;;;9.68;67.00;94364.50;5024131;28;20018;-76
2022/02/22 08:43:53;;;;;;;6.15;4.03;;;;;;;9.73;66.90;94367.41;5025507;28;20048;-78
2022/02/22 08:46:19;;;;;;;5.10;4.00;;;;;;;9.79;66.17;94373.81;5007513;28;20025;-76
2022/02/22 08:48:45;;;;;;;6.90;3.63;;;;;;;9.76;65.60;94381.25;5007694;28;20024;-75
2022/02/22 08:51:10;;;;;;;8.60;3.90;;;;;;;9.77;66.37;94379.38;5025400;28;20044;-77
2022/02/22 08:53:37;;;;;;;11.77;4.88;;;;;;;9.76;66.61;94383.91;5023999;28;20037;-77
2022/02/22 08:56:03;;;;;;;9.82;4.93;;;;;;;9.68;67.35;94384.06;4991744;28;20585;-77
2022/02/22 08:58:28;;;;;;;7.75;3.50;;;;;;;9.58;67.20;94380.91;5025329;28;20029;-77
2022/02/22 09:00:54;;;;;;;14.00;7.43;;;;;;;9.28;66.89;94390.81;5024231;28;20180;-77
2022/02/22 09:03:19;;;;;;;9.18;6.90;;;;;;;8.97;67.61;94385.84;5025130;28;20056;-76
2022/02/22 09:05:45;;;;;;;9.70;6.88;;;;;;;8.65;67.59;94399.53;5025519;28;20067;-78
2022/02/22 09:08:10;;;;;;;9.00;6.35;;;;;;;8.39;68.40;94393.72;5023835;28;20048;-76
2022/02/22 09:10:36;;;;;;;10.45;5.88;;;;;;;8.10;68.16;94400.78;5025289;28;20030;-76
2022/02/22 09:13:01;;;;;;;8.07;5.78;;;;;;;7.95;69.64;94395.44;5025146;28;20095;-76
2022/02/22 09:15:31;;;;;;;8.10;5.53;;;;;;;7.82;69.25;94395.28;5025388;28;20499;-77
2022/02/22 09:17:56;;;;;;;6.90;4.70;;;;;;;7.65;70.21;94408.81;5008054;28;20541;-77
2022/02/22 09:20:23;;;;;;;6.13;4.60;;;;;;;7.40;69.24;94403.72;5023879;28;20473;-78
2022/02/22 09:22:48;;;;;;;6.68;4.40;;;;;;;7.26;69.94;94418.72;5025240;28;20091;-76
2022/02/22 09:25:15;;;;;;;5.50;3.55;;;;;;;7.08;69.79;94403.88;5024023;28;20565;-77
2022/02/22 09:27:42;;;;;;;4.93;3.75;;;;;;;7.04;69.26;94422.06;5007081;28;20037;-77
2022/02/22 09:30:09;;;;;;;4.85;3.80;;;;;;;6.98;69.62;94417.47;5023757;28;20029;-77
2022/02/22 09:32:34;;;;;;;4.60;3.80;;;;;;;6.88;69.56;94430.22;5025096;28;20025;-77
2022/02/22 09:35:00;;;;;;;4.93;3.75;;;;;;;6.63;70.32;94435.72;5024579;28;20052;-78
2022/02/22 09:37:26;;;;;;;5.07;3.67;;;;;;;6.57;70.47;94420.44;5023708;28;20025;-77
2022/02/22 09:39:51;;;;;;;5.07;3.50;;;;;;;6.45;70.92;94412.03;5025009;28;20026;-79
2022/02/22 09:42:16;;;;;;;4.03;3.30;;;;;;;6.35;69.81;94423.72;5007387;28;20029;-77
2022/02/22 09:44:42;;;;;;;6.25;3.50;;;;;;;6.18;70.00;94442.47;5025115;28;20033;-78
2022/02/22 09:47:08;;;;;;;7.30;3.63;;;;;;;6.03;69.98;94431.69;5023681;28;20393;-76
2022/02/22 09:49:33;;;;;;;6.50;3.50;;;;;;;5.83;70.23;94433.94;5023534;28;20396;-76
2022/02/22 09:51:59;;;;;;;3.42;2.78;;;;;;;5.74;69.87;94445.63;5007036;28;20491;-77
2022/02/22 09:54:24;;;;;;;7.70;2.95;;;;;;;5.52;69.80;94422.25;5007110;28;20033;-80
2022/02/22 09:56:50;;;;;;;3.80;2.78;;;;;;;5.38;70.66;94438.91;5006932;28;20026;-77
2022/02/22 09:59:16;;;;;;;5.57;3.00;;;;;;;5.22;71.07;94440.59;5023373;28;20030;-78
2022/02/22 10:01:46;;;;;;;4.38;2.80;;;;;;;5.13;70.67;94444.22;5007099;28;20018;-77
2022/02/22 10:04:11;;;;;;;5.07;2.80;;;;;;;5.02;70.83;94445.41;5023618;28;20454;-80
2022/02/22 10:06:37;;;;;;;2.90;2.50;;;;;;;4.95;71.09;94454.06;5006938;28;20029;-78
2022/02/22 10:09:03;;;;;;;4.13;2.22;;;;;;;4.81;71.16;94455.56;5024654;28;20132;-79
2022/02/22 10:11:30;;;;;;;4.13;2.40;;;;;;;4.79;71.95;94452.22;5023373;28;20108;-77
2022/02/22 10:13:59;;;;;;;4.47;2.88;;;;;;;4.65;72.65;94452.88;5024846;28;20034;-80
2022/02/22 10:16:25;;;;;;;4.93;2.22;;;;;;;4.61;72.84;94467.50;5007116;28;20033;-82
2022/02/22 10:18:52;;;;;;;4.00;2.03;;;;;;;4.55;72.91;94461.84;5024542;28;20079;-77
2022/02/22 10:21:18;;;;;;;2.78;1.80;;;;;;;4.51;72.40;94471.13;5023487;28;20308;-78
2022/02/22 10:23:43;;;;;;;2.83;1.90;;;;;;;4.49;72.21;94475.78;5022939;28;20037;-76
2022/02/22 10:26:18;;;;;;;3.17;1.98;;;;;;;4.48;72.53;94465.31;5022974;28;20021;-77
2022/02/22 10:28:44;;;;;;;2.60;1.98;;;;;;;4.39;73.04;94489.19;5023038;28;20049;-79
2022/02/22 10:31:10;;;;;;;2.25;1.70;;;;;;;4.37;72.69;94458.50;5024462;28;20052;-80
2022/02/22 10:33:44;;;;;;;2.17;1.90;;;;;;;4.31;73.20;94491.81;5006868;28;20032;-80
2022/02/22 10:36:17;;;;;;;3.13;2.38;;;;;;;4.26;73.58;94488.81;5007393;28;20033;-77
2022/02/22 10:38:42;;;;;;;2.60;1.95;;;;;;;4.21;74.17;94497.25;5024212;28;20499;-76
2022/02/22 10:41:15;;;;;;;5.35;2.45;;;;;;;4.10;74.74;94509.00;5023082;28;20026;-77
2022/02/22 10:43:58;;;;;;;3.03;2.15;;;;;;;4.08;74.53;94495.88;5023225;28;20029;-75
2022/02/22 10:46:25;;;;;;;3.22;2.10;;;;;;;4.06;74.66;94505.81;5008687;28;20128;-76
2022/02/22 10:48:59;;;;;;;3.08;2.30;;;;;;;4.08;74.01;94495.88;5026476;28;20120;-79
2022/02/22 10:51:32;;;;;;;3.92;2.33;;;;;;;4.08;74.19;94495.03;5027769;28;20025;-76
2022/02/22 10:53:58;;;;;;;3.78;2.80;;;;;;;4.08;74.15;94498.53;5026217;28;20032;-78
2022/02/22 10:56:23;;;;;;;4.35;2.50;;;;;;;4.14;74.54;94491.78;5027580;28;20526;-78
2022/02/22 10:58:48;;;;;;;5.00;2.45;;;;;;;4.16;73.57;94507.53;5026068;28;20029;-78
2022/02/22 11:01:19;;;;;;;4.72;2.88;;;;;;;4.15;73.97;94508.50;5027713;28;20435;-77
2022/02/22 11:03:45;;;;;;;3.95;2.50;;;;;;;4.11;73.06;94497.38;5026289;28;20034;-76
2022/02/22 11:06:11;;;;;;;5.40;3.22;;;;;;;4.08;73.94;94497.69;5027422;28;20530;-78
2022/02/22 11:08:47;;;;;;;2.90;2.42;;;;;;;4.05;73.70;94498.84;5009795;28;20049;-77
2022/02/22 11:11:35;;;;;;;3.90;2.92;;;;;;;4.14;74.02;94504.19;5026155;28;20041;-77
2022/02/22 11:14:07;;;;;;;3.22;2.35;;;;;;;4.16;73.61;94515.50;5025637;28;20529;-76
2022/02/22 11:16:39;;;;;;;7.75;2.85;;;;;;;4.16;73.28;94510.19;5026001;28;20034;-76
2022/02/22 11:19:15;;;;;;;4.53;2.80;;;;;;;4.20;73.46;94501.75;5027025;28;20041;-75
2022/02/22 11:21:41;;;;;;;5.40;2.70;;;;;;;4.26;72.85;94494.94;5026164;28;20643;-76
2022/02/22 11:24:09;;;;;;;3.50;2.50;;;;;;;4.24;72.59;94504.88;5025676;28;20049;-77
2022/02/22 11:26:51;;;;;;;3.55;2.40;;;;;;;4.25;72.73;94514.53;5027044;28;20546;-76
2022/02/22 11:29:17;;;;;;;3.50;2.50;;;;;;;4.22;72.50;94508.72;5025850;28;20480;-76